sensor_id;sensor_type;location;lat;lon;timestamp;pressure;altitude;pressure_sealevel;temperature;humidity
38038;BME280;23843;51.320;12.340;2024-01-10T00:00:16;102017.56;;;-7.44;77.64
38038;BME280;23843;51.320;12.340;2024-01-10T00:02:42;102017.56;;;-7.44;78.39
38038;BME280;23843;51.320;12.340;2024-01-10T00:05:09;102015.84;;;-7.45;77.43
38038;BME280;23843;51.320;12.340;2024-01-10T00:07:34;102005.91;;;-7.45;77.45
38038;BME280;23843;51.320;12.340;2024-01-10T00:10:00;102009.56;;;-7.46;77.12
38038;BME280;23843;51.320;12.340;2024-01-10T00:12:26;101997.91;;;-7.47;77.52
38038;BME280;23843;51.320;12.340;2024-01-10T00:14:51;102012.28;;;-7.46;78.01
38038;BME280;23843;51.320;12.340;2024-01-10T00:17:17;102000.59;;;-7.47;77.89
38038;BME280;23843;51.320;12.340;2024-01-10T00:19:42;102006.00;;;-7.47;77.69
38038;BME280;23843;51.320;12.340;2024-01-10T00:22:09;102006.00;;;-7.47;77.55
38038;BME280;23843;51.320;12.340;2024-01-10T00:24:34;102013.22;;;-7.47;77.87
38038;BME280;23843;51.320;12.340;2024-01-10T00:27:00;102004.31;;;-7.49;78.02
38038;BME280;23843;51.320;12.340;2024-01-10T00:29:26;102017.75;;;-7.48;78.04
38038;BME280;23843;51.320;12.340;2024-01-10T00:31:51;102012.34;;;-7.48;78.23
38038;BME280;23843;51.320;12.340;2024-01-10T00:34:17;102018.63;;;-7.47;77.39
38038;BME280;23843;51.320;12.340;2024-01-10T00:36:42;102017.66;;;-7.46;78.03
38038;BME280;23843;51.320;12.340;2024-01-10T00:39:09;102014.09;;;-7.47;77.59
38038;BME280;23843;51.320;12.340;2024-01-10T00:41:34;102019.50;;;-7.47;77.89
38038;BME280;23843;51.320;12.340;2024-01-10T00:44:00;102017.66;;;-7.46;78.19
38038;BME280;23843;51.320;12.340;2024-01-10T00:46:25;102015.91;;;-7.47;78.10
38038;BME280;23843;51.320;12.340;2024-01-10T00:48:51;102014.97;;;-7.46;78.11
38038;BME280;23843;51.320;12.340;2024-01-10T00:51:16;102022.19;;;-7.47;77.70
38038;BME280;23843;51.320;12.340;2024-01-10T00:53:42;102020.50;;;-7.49;77.34
38038;BME280;23843;51.320;12.340;2024-01-10T00:56:09;102018.75;;;-7.50;77.05
38038;BME280;23843;51.320;12.340;2024-01-10T00:58:35;102014.31;;;-7.51;78.05
38038;BME280;23843;51.320;12.340;2024-01-10T01:01:01;102020.59;;;-7.51;78.36
38038;BME280;23843;51.320;12.340;2024-01-10T01:03:26;102018.84;;;-7.52;77.66
38038;BME280;23843;51.320;12.340;2024-01-10T01:05:52;102016.13;;;-7.52;77.70
38038;BME280;23843;51.320;12.340;2024-01-10T01:08:17;102024.34;;;-7.53;77.94
38038;BME280;23843;51.320;12.340;2024-01-10T01:10:43;102019.88;;;-7.54;77.73
38038;BME280;23843;51.320;12.340;2024-01-10T01:13:09;102019.09;;;-7.56;77.58
38038;BME280;23843;51.320;12.340;2024-01-10T01:15:35;102017.34;;;-7.57;78.12
38038;BME280;23843;51.320;12.340;2024-01-10T01:18:01;102010.19;;;-7.58;77.97
38038;BME280;23843;51.320;12.340;2024-01-10T01:20:26;102016.63;;;-7.61;77.99
38038;BME280;23843;51.320;12.340;2024-01-10T01:22:52;102020.34;;;-7.63;78.01
38038;BME280;23843;51.320;12.340;2024-01-10T01:25:17;102021.38;;;-7.66;77.56
38038;BME280;23843;51.320;12.340;2024-01-10T01:27:43;102014.41;;;-7.70;77.82
38038;BME280;23843;51.320;12.340;2024-01-10T01:30:10;102023.44;;;-7.71;77.45
38038;BME280;23843;51.320;12.340;2024-01-10T01:32:36;102025.31;;;-7.73;77.48
38038;BME280;23843;51.320;12.340;2024-01-10T01:35:02;102019.22;;;-7.76;78.23
38038;BME280;23843;51.320;12.340;2024-01-10T01:37:27;102024.69;;;-7.78;78.28
38038;BME280;23843;51.320;12.340;2024-01-10T01:39:53;102021.19;;;-7.80;78.54
38038;BME280;23843;51.320;12.340;2024-01-10T01:42:18;102015.88;;;-7.81;77.88
38038;BME280;23843;51.320;12.340;2024-01-10T01:44:44;102012.34;;;-7.82;77.77
38038;BME280;23843;51.320;12.340;2024-01-10T01:47:11;102008.81;;;-7.84;77.27
38038;BME280;23843;51.320;12.340;2024-01-10T01:49:36;102005.25;;;-7.84;77.72
38038;BME280;23843;51.320;12.340;2024-01-10T01:52:02;102002.63;;;-7.86;77.64
38038;BME280;23843;51.320;12.340;2024-01-10T01:54:29;102002.63;;;-7.86;78.10
38038;BME280;23843;51.320;12.340;2024-01-10T01:56:56;101995.50;;;-7.87;77.51
38038;BME280;23843;51.320;12.340;2024-01-10T01:59:21;102000.00;;;-7.88;78.02
38038;BME280;23843;51.320;12.340;2024-01-10T02:01:47;101994.72;;;-7.89;78.18
38038;BME280;23843;51.320;12.340;2024-01-10T02:04:14;101995.66;;;-7.90;78.35
38038;BME280;23843;51.320;12.340;2024-01-10T02:06:39;101998.50;;;-7.93;78.01
38038;BME280;23843;51.320;12.340;2024-01-10T02:09:05;102003.09;;;-7.95;77.90
38038;BME280;23843;51.320;12.340;2024-01-10T02:11:31;101998.75;;;-7.98;77.79
38038;BME280;23843;51.320;12.340;2024-01-10T02:13:57;102002.31;;;-7.97;78.03
38038;BME280;23843;51.320;12.340;2024-01-10T02:16:23;101994.28;;;-7.99;77.79
38038;BME280;23843;51.320;12.340;2024-01-10T02:18:49;101998.81;;;-7.99;78.60
38038;BME280;23843;51.320;12.340;2024-01-10T02:21:16;101997.06;;;-8.00;78.59
38038;BME280;23843;51.320;12.340;2024-01-10T02:23:41;101997.06;;;-8.00;77.91
38038;BME280;23843;51.320;12.340;2024-01-10T02:26:08;101995.38;;;-8.03;78.11
38038;BME280;23843;51.320;12.340;2024-01-10T02:28:33;101993.50;;;-8.01;78.54
38038;BME280;23843;51.320;12.340;2024-01-10T02:31:00;101989.84;;;-8.00;78.05
38038;BME280;23843;51.320;12.340;2024-01-10T02:33:25;101994.38;;;-8.00;78.47
38038;BME280;23843;51.320;12.340;2024-01-10T02:35:51;101992.53;;;-8.00;78.65
38038;BME280;23843;51.320;12.340;2024-01-10T02:38:16;101994.28;;;-7.99;78.13
38038;BME280;23843;51.320;12.340;2024-01-10T02:40:42;101988.84;;;-7.97;78.31
38038;BME280;23843;51.320;12.340;2024-01-10T02:43:09;101983.44;;;-7.97;78.34
38038;BME280;23843;51.320;12.340;2024-01-10T02:45:34;101984.31;;;-7.97;78.19
38038;BME280;23843;51.320;12.340;2024-01-10T02:48:00;101982.56;;;-7.98;78.02
38038;BME280;23843;51.320;12.340;2024-01-10T02:50:25;101970.09;;;-8.00;77.34
38038;BME280;23843;51.320;12.340;2024-01-10T02:52:51;101974.63;;;-8.01;78.02
38038;BME280;23843;51.320;12.340;2024-01-10T02:55:16;101975.50;;;-8.00;78.34
38038;BME280;23843;51.320;12.340;2024-01-10T02:57:42;101981.84;;;-8.01;78.00
38038;BME280;23843;51.320;12.340;2024-01-10T03:00:10;101974.69;;;-8.02;77.52
38038;BME280;23843;51.320;12.340;2024-01-10T03:02:35;101974.00;;;-8.06;77.65
38038;BME280;23843;51.320;12.340;2024-01-10T03:05:01;101974.94;;;-8.07;77.85
38038;BME280;23843;51.320;12.340;2024-01-10T03:07:27;101976.81;;;-8.09;77.26
38038;BME280;23843;51.320;12.340;2024-01-10T03:09:52;101968.81;;;-8.10;77.60
38038;BME280;23843;51.320;12.340;2024-01-10T03:12:18;101969.84;;;-8.13;77.70
38038;BME280;23843;51.320;12.340;2024-01-10T03:14:43;101959.06;;;-8.13;77.96
38038;BME280;23843;51.320;12.340;2024-01-10T03:17:10;101968.16;;;-8.15;77.60
38038;BME280;23843;51.320;12.340;2024-01-10T03:19:36;101963.91;;;-8.19;77.88
38038;BME280;23843;51.320;12.340;2024-01-10T03:22:01;101954.94;;;-8.20;78.24
38038;BME280;23843;51.320;12.340;2024-01-10T03:24:27;101952.31;;;-8.21;78.13
38038;BME280;23843;51.320;12.340;2024-01-10T03:26:52;101943.41;;;-8.23;78.19
38038;BME280;23843;51.320;12.340;2024-01-10T03:29:18;101944.28;;;-8.23;77.71
38038;BME280;23843;51.320;12.340;2024-01-10T03:31:43;101950.56;;;-8.22;78.16
38038;BME280;23843;51.320;12.340;2024-01-10T03:34:10;101946.19;;;-8.25;78.13
38038;BME280;23843;51.320;12.340;2024-01-10T03:36:36;101967.84;;;-8.27;78.22
38038;BME280;23843;51.320;12.340;2024-01-10T03:39:01;101949.06;;;-8.28;77.71
38038;BME280;23843;51.320;12.340;2024-01-10T03:41:27;101946.44;;;-8.30;78.32
38038;BME280;23843;51.320;12.340;2024-01-10T03:43:52;101951.03;;;-8.32;78.47
38038;BME280;23843;51.320;12.340;2024-01-10T03:46:18;101955.50;;;-8.31;78.07
38038;BME280;23843;51.320;12.340;2024-01-10T03:48:43;101947.41;;;-8.31;78.47
38038;BME280;23843;51.320;12.340;2024-01-10T03:51:10;101949.22;;;-8.31;78.72
38038;BME280;23843;51.320;12.340;2024-01-10T03:53:36;101944.72;;;-8.31;77.93
38038;BME280;23843;51.320;12.340;2024-01-10T03:56:03;101942.00;;;-8.31;78.11
38038;BME280;23843;51.320;12.340;2024-01-10T03:58:29;101938.50;;;-8.33;78.25
38038;BME280;23843;51.320;12.340;2024-01-10T04:00:54;101936.81;;;-8.34;78.13
38038;BME280;23843;51.320;12.340;2024-01-10T04:03:20;101946.59;;;-8.33;78.14
38038;BME280;23843;51.320;12.340;2024-01-10T04:05:45;101937.56;;;-8.32;78.05
38038;BME280;23843;51.320;12.340;2024-01-10T04:08:12;101942.97;;;-8.32;78.75
38038;BME280;23843;51.320;12.340;2024-01-10T04:10:38;101937.56;;;-8.32;78.29
38038;BME280;23843;51.320;12.340;2024-01-10T04:13:23;101943.06;;;-8.33;78.36
38038;BME280;23843;51.320;12.340;2024-01-10T04:16:00;101940.38;;;-8.33;78.38
38038;BME280;23843;51.320;12.340;2024-01-10T04:18:45;101939.50;;;-8.34;77.73
38038;BME280;23843;51.320;12.340;2024-01-10T04:21:11;101924.28;;;-8.35;77.99
38038;BME280;23843;51.320;12.340;2024-01-10T04:23:38;101931.47;;;-8.35;78.36
38038;BME280;23843;51.320;12.340;2024-01-10T04:26:03;101932.44;;;-8.36;78.50
38038;BME280;23843;51.320;12.340;2024-01-10T04:28:29;101937.75;;;-8.35;78.08
38038;BME280;23843;51.320;12.340;2024-01-10T04:30:55;101936.00;;;-8.36;78.02
38038;BME280;23843;51.320;12.340;2024-01-10T04:33:20;101930.69;;;-8.37;78.47
38038;BME280;23843;51.320;12.340;2024-01-10T04:35:46;101945.97;;;-8.38;78.51
38038;BME280;23843;51.320;12.340;2024-01-10T04:38:11;101947.72;;;-8.37;78.12
38038;BME280;23843;51.320;12.340;2024-01-10T04:40:38;101953.97;;;-8.36;78.74
38038;BME280;23843;51.320;12.340;2024-01-10T04:43:04;101949.53;;;-8.37;78.34
38038;BME280;23843;51.320;12.340;2024-01-10T04:45:29;101946.84;;;-8.37;78.47
38038;BME280;23843;51.320;12.340;2024-01-10T04:47:54;101950.41;;;-8.37;78.44
38038;BME280;23843;51.320;12.340;2024-01-10T04:50:20;101955.00;;;-8.39;78.44
38038;BME280;23843;51.320;12.340;2024-01-10T04:52:45;101949.59;;;-8.39;78.98
38038;BME280;23843;51.320;12.340;2024-01-10T04:55:11;101945.16;;;-8.40;78.57
38038;BME280;23843;51.320;12.340;2024-01-10T04:57:38;101944.38;;;-8.42;78.31
38038;BME280;23843;51.320;12.340;2024-01-10T05:00:04;101943.56;;;-8.44;78.68
38038;BME280;23843;51.320;12.340;2024-01-10T05:02:30;101947.22;;;-8.45;78.62
38038;BME280;23843;51.320;12.340;2024-01-10T05:04:55;101948.91;;;-8.42;78.60
38038;BME280;23843;51.320;12.340;2024-01-10T05:07:21;101947.06;;;-8.42;78.39
38038;BME280;23843;51.320;12.340;2024-01-10T05:09:46;101952.47;;;-8.42;78.78
38038;BME280;23843;51.320;12.340;2024-01-10T05:12:12;101951.53;;;-8.41;78.78
38038;BME280;23843;51.320;12.340;2024-01-10T05:14:39;101953.34;;;-8.41;78.67
38038;BME280;23843;51.320;12.340;2024-01-10T05:17:04;101958.56;;;-8.38;78.80
38038;BME280;23843;51.320;12.340;2024-01-10T05:19:30;101968.47;;;-8.39;78.29
38038;BME280;23843;51.320;12.340;2024-01-10T05:21:55;101961.25;;;-8.38;78.29
38038;BME280;23843;51.320;12.340;2024-01-10T05:24:21;101959.44;;;-8.38;78.62
38038;BME280;23843;51.320;12.340;2024-01-10T05:26:46;101953.16;;;-8.38;78.47
38038;BME280;23843;51.320;12.340;2024-01-10T05:29:12;101947.78;;;-8.38;78.36
38038;BME280;23843;51.320;12.340;2024-01-10T05:31:39;101950.47;;;-8.38;78.38
38038;BME280;23843;51.320;12.340;2024-01-10T05:34:04;101950.53;;;-8.40;78.35
38038;BME280;23843;51.320;12.340;2024-01-10T05:36:29;101953.16;;;-8.38;78.51
38038;BME280;23843;51.320;12.340;2024-01-10T05:38:55;101957.63;;;-8.37;78.50
38038;BME280;23843;51.320;12.340;2024-01-10T05:41:20;101957.69;;;-8.39;78.41
38038;BME280;23843;51.320;12.340;2024-01-10T05:43:46;101955.00;;;-8.39;78.85
38038;BME280;23843;51.320;12.340;2024-01-10T05:46:11;101948.72;;;-8.39;78.56
38038;BME280;23843;51.320;12.340;2024-01-10T05:48:38;101951.41;;;-8.39;78.13
38038;BME280;23843;51.320;12.340;2024-01-10T05:51:04;101961.31;;;-8.40;78.55
38038;BME280;23843;51.320;12.340;2024-01-10T05:53:30;101955.94;;;-8.40;78.29
38038;BME280;23843;51.320;12.340;2024-01-10T05:55:55;101953.25;;;-8.40;78.51
38038;BME280;23843;51.320;12.340;2024-01-10T05:58:21;101956.81;;;-8.39;78.42
38038;BME280;23843;51.320;12.340;2024-01-10T06:00:46;101956.81;;;-8.39;78.26
38038;BME280;23843;51.320;12.340;2024-01-10T06:03:12;101954.13;;;-8.39;78.06
38038;BME280;23843;51.320;12.340;2024-01-10T06:05:39;101958.63;;;-8.40;78.18
38038;BME280;23843;51.320;12.340;2024-01-10T06:08:05;101956.03;;;-8.41;78.16
38038;BME280;23843;51.320;12.340;2024-01-10T06:10:30;101956.09;;;-8.43;77.94
38038;BME280;23843;51.320;12.340;2024-01-10T06:12:56;101966.06;;;-8.45;77.55
38038;BME280;23843;51.320;12.340;2024-01-10T06:15:21;101959.88;;;-8.47;78.45
38038;BME280;23843;51.320;12.340;2024-01-10T06:17:47;101950.06;;;-8.48;78.39
38038;BME280;23843;51.320;12.340;2024-01-10T06:20:13;101945.69;;;-8.50;77.91
38038;BME280;23843;51.320;12.340;2024-01-10T06:22:40;101948.47;;;-8.52;77.99
38038;BME280;23843;51.320;12.340;2024-01-10T06:25:06;101950.28;;;-8.52;78.68
38038;BME280;23843;51.320;12.340;2024-01-10T06:27:31;101942.28;;;-8.54;77.95
38038;BME280;23843;51.320;12.340;2024-01-10T06:29:57;101951.22;;;-8.53;78.16
38038;BME280;23843;51.320;12.340;2024-01-10T06:32:22;101944.97;;;-8.54;78.23
38038;BME280;23843;51.320;12.340;2024-01-10T06:34:48;101942.19;;;-8.52;78.42
38038;BME280;23843;51.320;12.340;2024-01-10T06:37:14;101939.50;;;-8.52;78.10
38038;BME280;23843;51.320;12.340;2024-01-10T06:39:41;101942.19;;;-8.52;78.53
38038;BME280;23843;51.320;12.340;2024-01-10T06:42:06;101945.78;;;-8.52;78.59
38038;BME280;23843;51.320;12.340;2024-01-10T06:44:32;101934.19;;;-8.54;77.84
38038;BME280;23843;51.320;12.340;2024-01-10T06:46:57;101926.09;;;-8.54;78.27
38038;BME280;23843;51.320;12.340;2024-01-10T06:49:23;101927.94;;;-8.54;78.13
38038;BME280;23843;51.320;12.340;2024-01-10T06:51:48;101936.97;;;-8.55;78.40
38038;BME280;23843;51.320;12.340;2024-01-10T06:54:14;101938.81;;;-8.56;78.47
38038;BME280;23843;51.320;12.340;2024-01-10T06:56:41;101937.06;;;-8.57;78.30
38038;BME280;23843;51.320;12.340;2024-01-10T06:59:06;101939.81;;;-8.58;78.12
38038;BME280;23843;51.320;12.340;2024-01-10T07:01:32;101930.94;;;-8.60;78.61
38038;BME280;23843;51.320;12.340;2024-01-10T07:03:57;101927.53;;;-8.64;78.21
38038;BME280;23843;51.320;12.340;2024-01-10T07:06:23;101932.03;;;-8.64;78.30
38038;BME280;23843;51.320;12.340;2024-01-10T07:08:49;101935.66;;;-8.66;78.38
38038;BME280;23843;51.320;12.340;2024-01-10T07:11:14;101925.91;;;-8.68;78.09
38038;BME280;23843;51.320;12.340;2024-01-10T07:13:42;101932.97;;;-8.66;78.53
38038;BME280;23843;51.320;12.340;2024-01-10T07:16:08;101928.41;;;-8.63;78.77
38038;BME280;23843;51.320;12.340;2024-01-10T07:18:33;101926.41;;;-8.60;79.05
38038;BME280;23843;51.320;12.340;2024-01-10T07:20:59;101923.66;;;-8.58;78.63
38038;BME280;23843;51.320;12.340;2024-01-10T07:23:25;101920.72;;;-8.54;78.88
38038;BME280;23843;51.320;12.340;2024-01-10T07:25:50;101923.28;;;-8.51;78.52
38038;BME280;23843;51.320;12.340;2024-01-10T07:28:16;101923.91;;;-8.46;78.75
38038;BME280;23843;51.320;12.340;2024-01-10T07:30:43;101925.53;;;-8.42;78.64
38038;BME280;23843;51.320;12.340;2024-01-10T07:33:08;101934.25;;;-8.37;78.37
38038;BME280;23843;51.320;12.340;2024-01-10T07:35:34;101937.69;;;-8.33;79.01
38038;BME280;23843;51.320;12.340;2024-01-10T07:37:59;101942.78;;;-8.29;77.97
38038;BME280;23843;51.320;12.340;2024-01-10T07:40:25;101940.72;;;-8.23;78.22
38038;BME280;23843;51.320;12.340;2024-01-10T07:42:50;101948.59;;;-8.19;78.62
38038;BME280;23843;51.320;12.340;2024-01-10T07:45:16;101947.41;;;-8.13;78.66
38038;BME280;23843;51.320;12.340;2024-01-10T07:47:43;101957.06;;;-8.09;78.62
38038;BME280;23843;51.320;12.340;2024-01-10T07:50:09;101960.44;;;-8.04;78.17
38038;BME280;23843;51.320;12.340;2024-01-10T07:52:36;101955.59;;;-7.98;78.14
38038;BME280;23843;51.320;12.340;2024-01-10T07:55:02;101958.06;;;-7.93;78.07
38038;BME280;23843;51.320;12.340;2024-01-10T07:57:28;101956.97;;;-7.89;78.38
38038;BME280;23843;51.320;12.340;2024-01-10T08:00:03;101957.66;;;-7.86;78.11
38038;BME280;23843;51.320;12.340;2024-01-10T08:02:28;101961.88;;;-7.80;78.18
38038;BME280;23843;51.320;12.340;2024-01-10T08:04:55;101968.88;;;-7.76;77.97
38038;BME280;23843;51.320;12.340;2024-01-10T08:07:21;101968.47;;;-7.68;78.63
38038;BME280;23843;51.320;12.340;2024-01-10T08:09:46;101962.69;;;-7.61;77.39
38038;BME280;23843;51.320;12.340;2024-01-10T08:12:12;101953.31;;;-7.54;78.12
38038;BME280;23843;51.320;12.340;2024-01-10T08:14:37;101963.53;;;-7.43;78.40
38038;BME280;23843;51.320;12.340;2024-01-10T08:17:03;101961.28;;;-7.35;77.45
38038;BME280;23843;51.320;12.340;2024-01-10T08:19:29;101951.03;;;-7.28;77.22
38038;BME280;23843;51.320;12.340;2024-01-10T08:21:56;101954.19;;;-7.20;77.74
38038;BME280;23843;51.320;12.340;2024-01-10T08:24:22;101945.50;;;-6.77;78.47
38038;BME280;23843;51.320;12.340;2024-01-10T08:26:48;101949.38;;;-6.04;80.02
38038;BME280;23843;51.320;12.340;2024-01-10T08:29:13;101934.19;;;-5.32;80.03
38038;BME280;23843;51.320;12.340;2024-01-10T08:31:39;101936.78;;;-4.60;79.69
38038;BME280;23843;51.320;12.340;2024-01-10T08:34:04;101938.63;;;-3.93;79.35
38038;BME280;23843;51.320;12.340;2024-01-10T08:36:30;101940.72;;;-3.44;78.06
38038;BME280;23843;51.320;12.340;2024-01-10T08:38:57;101931.16;;;-3.11;77.57
38038;BME280;23843;51.320;12.340;2024-01-10T08:41:22;101932.00;;;-2.73;77.86
38038;BME280;23843;51.320;12.340;2024-01-10T08:43:48;101930.63;;;-2.42;76.17
38038;BME280;23843;51.320;12.340;2024-01-10T08:46:13;101927.34;;;-2.11;75.46
38038;BME280;23843;51.320;12.340;2024-01-10T08:48:39;101920.00;;;-1.98;74.63
38038;BME280;23843;51.320;12.340;2024-01-10T08:51:04;101927.72;;;-1.91;74.68
38038;BME280;23843;51.320;12.340;2024-01-10T08:53:30;101928.03;;;-1.96;74.54
38038;BME280;23843;51.320;12.340;2024-01-10T08:55:57;101929.03;;;-1.97;75.34
38038;BME280;23843;51.320;12.340;2024-01-10T08:58:22;101928.19;;;-1.98;74.91
38038;BME280;23843;51.320;12.340;2024-01-10T09:00:48;101923.25;;;-1.92;75.67
38038;BME280;23843;51.320;12.340;2024-01-10T09:03:13;101921.22;;;-1.78;75.30
38038;BME280;23843;51.320;12.340;2024-01-10T09:05:39;101923.84;;;-1.65;74.56
38038;BME280;23843;51.320;12.340;2024-01-10T09:08:05;101924.09;;;-1.68;74.38
38038;BME280;23843;51.320;12.340;2024-01-10T09:10:30;101928.41;;;-1.77;74.50
38038;BME280;23843;51.320;12.340;2024-01-10T09:12:58;101921.91;;;-1.87;74.47
38038;BME280;23843;51.320;12.340;2024-01-10T09:15:23;101920.75;;;-1.96;74.33
38038;BME280;23843;51.320;12.340;2024-01-10T09:17:49;101930.25;;;-2.01;73.68
38038;BME280;23843;51.320;12.340;2024-01-10T09:20:14;101935.50;;;-2.11;74.04
38038;BME280;23843;51.320;12.340;2024-01-10T09:22:40;101939.38;;;-2.26;73.82
38038;BME280;23843;51.320;12.340;2024-01-10T09:25:06;101936.19;;;-2.44;73.48
38038;BME280;23843;51.320;12.340;2024-01-10T09:27:32;101942.63;;;-2.57;73.58
38038;BME280;23843;51.320;12.340;2024-01-10T09:29:59;101930.78;;;-2.69;73.86
38038;BME280;23843;51.320;12.340;2024-01-10T09:32:24;101928.50;;;-2.75;74.32
38038;BME280;23843;51.320;12.340;2024-01-10T09:34:50;101939.16;;;-2.85;74.75
38038;BME280;23843;51.320;12.340;2024-01-10T09:37:15;101934.94;;;-2.89;74.69
38038;BME280;23843;51.320;12.340;2024-01-10T09:39:41;101935.38;;;-2.95;74.97
38038;BME280;23843;51.320;12.340;2024-01-10T09:42:06;101935.84;;;-3.01;75.19
38038;BME280;23843;51.320;12.340;2024-01-10T09:44:32;101935.28;;;-3.06;74.94
38038;BME280;23843;51.320;12.340;2024-01-10T09:47:00;101929.50;;;-3.14;74.92
38038;BME280;23843;51.320;12.340;2024-01-10T09:49:26;101923.53;;;-3.19;75.03
38038;BME280;23843;51.320;12.340;2024-01-10T09:51:57;101931.94;;;-3.22;75.75
38038;BME280;23843;51.320;12.340;2024-01-10T09:54:24;101927.47;;;-3.23;75.34
38038;BME280;23843;51.320;12.340;2024-01-10T09:56:51;101926.59;;;-3.24;75.64
38038;BME280;23843;51.320;12.340;2024-01-10T09:59:17;101923.78;;;-3.22;75.51
38038;BME280;23843;51.320;12.340;2024-01-10T10:01:42;101930.09;;;-3.22;75.67
38038;BME280;23843;51.320;12.340;2024-01-10T10:04:12;101930.09;;;-3.22;75.50
38038;BME280;23843;51.320;12.340;2024-01-10T10:06:37;101918.44;;;-3.24;75.12
38038;BME280;23843;51.320;12.340;2024-01-10T10:09:03;101913.53;;;-3.31;75.46
38038;BME280;23843;51.320;12.340;2024-01-10T10:11:28;101917.25;;;-3.32;75.72
38038;BME280;23843;51.320;12.340;2024-01-10T10:13:54;101914.97;;;-3.38;75.70
38038;BME280;23843;51.320;12.340;2024-01-10T10:16:23;101906.03;;;-3.40;75.78
38038;BME280;23843;51.320;12.340;2024-01-10T10:18:49;101907.00;;;-3.41;75.96
38038;BME280;23843;51.320;12.340;2024-01-10T10:21:16;101907.69;;;-3.38;75.54
38038;BME280;23843;51.320;12.340;2024-01-10T10:23:43;101912.00;;;-3.35;75.99
38038;BME280;23843;51.320;12.340;2024-01-10T10:26:16;101898.41;;;-3.35;75.64
38038;BME280;23843;51.320;12.340;2024-01-10T10:28:41;101905.50;;;-3.33;75.58
38038;BME280;23843;51.320;12.340;2024-01-10T10:31:07;101898.00;;;-3.29;75.51
38038;BME280;23843;51.320;12.340;2024-01-10T10:33:33;101896.91;;;-3.27;75.60
38038;BME280;23843;51.320;12.340;2024-01-10T10:35:58;101892.13;;;-3.23;75.26
38038;BME280;23843;51.320;12.340;2024-01-10T10:38:25;101885.72;;;-3.22;75.16
38038;BME280;23843;51.320;12.340;2024-01-10T10:40:51;101882.69;;;-3.18;75.28
38038;BME280;23843;51.320;12.340;2024-01-10T10:43:18;101883.44;;;-3.16;75.26
38038;BME280;23843;51.320;12.340;2024-01-10T10:45:48;101888.66;;;-3.13;75.75
38038;BME280;23843;51.320;12.340;2024-01-10T10:48:17;101887.47;;;-3.08;75.32
38038;BME280;23843;51.320;12.340;2024-01-10T10:50:47;101880.91;;;-3.06;75.52
38038;BME280;23843;51.320;12.340;2024-01-10T10:53:16;101879.84;;;-3.03;74.94
38038;BME280;23843;51.320;12.340;2024-01-10T10:55:46;101881.47;;;-3.01;75.42
38038;BME280;23843;51.320;12.340;2024-01-10T10:58:13;101877.53;;;-2.97;74.93
38038;BME280;23843;51.320;12.340;2024-01-10T11:00:40;101880.06;;;-2.94;75.44
38038;BME280;23843;51.320;12.340;2024-01-10T11:03:07;101879.94;;;-2.92;74.77
38038;BME280;23843;51.320;12.340;2024-01-10T11:05:35;101884.50;;;-2.93;75.21
38038;BME280;23843;51.320;12.340;2024-01-10T11:08:02;101886.22;;;-2.92;74.86
38038;BME280;23843;51.320;12.340;2024-01-10T11:10:32;101879.81;;;-2.91;75.33
38038;BME280;23843;51.320;12.340;2024-01-10T11:13:17;101877.22;;;-2.92;75.23
38038;BME280;23843;51.320;12.340;2024-01-10T11:15:59;101877.97;;;-2.90;75.35
38038;BME280;23843;51.320;12.340;2024-01-10T11:18:39;101873.19;;;-2.87;75.24
38038;BME280;23843;51.320;12.340;2024-01-10T11:21:19;101876.00;;;-2.88;75.39
38038;BME280;23843;51.320;12.340;2024-01-10T11:23:48;101873.28;;;-2.88;75.48
38038;BME280;23843;51.320;12.340;2024-01-10T11:26:15;101876.63;;;-2.85;75.51
38038;BME280;23843;51.320;12.340;2024-01-10T11:28:42;101868.28;;;-2.82;75.26
38038;BME280;23843;51.320;12.340;2024-01-10T11:31:08;101870.78;;;-2.79;75.38
38038;BME280;23843;51.320;12.340;2024-01-10T11:33:35;101869.56;;;-2.75;75.48
38038;BME280;23843;51.320;12.340;2024-01-10T11:36:22;101868.38;;;-2.70;75.40
38038;BME280;23843;51.320;12.340;2024-01-10T11:38:49;101872.59;;;-2.66;74.72
38038;BME280;23843;51.320;12.340;2024-01-10T11:41:20;101864.94;;;-2.61;75.52
38038;BME280;23843;51.320;12.340;2024-01-10T11:44:25;101858.53;;;-2.60;75.61
38038;BME280;23843;51.320;12.340;2024-01-10T11:46:53;101867.09;;;-2.54;75.36
38038;BME280;23843;51.320;12.340;2024-01-10T11:49:20;101864.16;;;-2.51;74.90
38038;BME280;23843;51.320;12.340;2024-01-10T11:51:46;101861.34;;;-2.49;75.35
38038;BME280;23843;51.320;12.340;2024-01-10T11:54:36;101860.22;;;-2.47;74.77
38038;BME280;23843;51.320;12.340;2024-01-10T11:57:01;101860.97;;;-2.45;74.69
38038;BME280;23843;51.320;12.340;2024-01-10T11:59:29;101857.50;;;-2.47;74.74
38038;BME280;23843;51.320;12.340;2024-01-10T12:01:54;101851.31;;;-2.49;75.03
38038;BME280;23843;51.320;12.340;2024-01-10T12:04:20;101859.50;;;-2.49;74.83
38038;BME280;23843;51.320;12.340;2024-01-10T12:06:46;101858.47;;;-2.48;75.41
38038;BME280;23843;51.320;12.340;2024-01-10T12:09:12;101856.50;;;-2.46;74.93
38038;BME280;23843;51.320;12.340;2024-01-10T12:11:38;101848.34;;;-2.46;74.95
38038;BME280;23843;51.320;12.340;2024-01-10T12:14:04;101843.78;;;-2.45;74.92
38038;BME280;23843;51.320;12.340;2024-01-10T12:16:32;101838.25;;;-2.44;74.93
38038;BME280;23843;51.320;12.340;2024-01-10T12:18:57;101839.88;;;-2.41;75.24
38038;BME280;23843;51.320;12.340;2024-01-10T12:21:23;101836.03;;;-2.39;75.42
38038;BME280;23843;51.320;12.340;2024-01-10T12:23:49;101834.94;;;-2.36;74.95
38038;BME280;23843;51.320;12.340;2024-01-10T12:26:15;101837.66;;;-2.36;75.14
38038;BME280;23843;51.320;12.340;2024-01-10T12:28:53;101830.38;;;-2.36;74.72
38038;BME280;23843;51.320;12.340;2024-01-10T12:31:18;101837.66;;;-2.36;75.13
38038;BME280;23843;51.320;12.340;2024-01-10T12:33:47;101835.69;;;-2.34;74.79
38038;BME280;23843;51.320;12.340;2024-01-10T12:36:12;101838.41;;;-2.34;75.28